createdAt,value
2018-11-21T00:00:43.977Z,100.00
2018-11-21T00:03:12.559Z,100.00
2018-11-21T00:05:40.849Z,100.00
2018-11-21T00:08:09.117Z,100.00
2018-11-21T00:10:38.106Z,100.00
2018-11-21T00:13:06.381Z,100.00
2018-11-21T00:15:34.684Z,100.00
2018-11-21T00:18:03.483Z,100.00
2018-11-21T00:20:32.364Z,100.00
2018-11-21T00:23:00.822Z,100.00
2018-11-21T00:25:29.302Z,100.00
2018-11-21T00:27:57.780Z,100.00
2018-11-21T00:30:27.272Z,100.00
2018-11-21T00:32:55.864Z,100.00
2018-11-21T00:35:24.190Z,100.00
2018-11-21T00:37:55.569Z,100.00
2018-11-21T00:40:24.392Z,100.00
2018-11-21T00:42:52.672Z,100.00
2018-11-21T00:45:21.130Z,100.00
2018-11-21T00:47:49.505Z,100.00
2018-11-21T00:50:19.114Z,100.00
2018-11-21T00:52:48.834Z,100.00
2018-11-21T00:55:17.336Z,100.00
2018-11-21T00:57:45.575Z,100.00
2018-11-21T01:00:14.076Z,100.00
2018-11-21T01:02:42.754Z,100.00
2018-11-21T01:05:11.542Z,100.00
2018-11-21T01:07:40.537Z,100.00
2018-11-21T01:10:09.277Z,100.00
2018-11-21T01:12:37.588Z,100.00
2018-11-21T01:15:06.278Z,100.00
2018-11-21T01:17:37.394Z,100.00
2018-11-21T01:20:05.902Z,100.00
2018-11-21T01:22:34.186Z,100.00
2018-11-21T01:25:02.474Z,100.00
2018-11-21T01:27:31.142Z,100.00
2018-11-21T01:29:59.431Z,100.00
2018-11-21T01:32:27.703Z,100.00
2018-11-21T01:35:12.487Z,100.00
2018-11-21T01:37:43.149Z,100.00
2018-11-21T01:40:11.464Z,100.00
2018-11-21T01:42:39.744Z,100.00
2018-11-21T01:45:10.261Z,100.00
2018-11-21T01:47:38.649Z,100.00
2018-11-21T01:50:06.945Z,100.00
2018-11-21T01:52:35.177Z,100.00
2018-11-21T01:55:03.572Z,100.00
2018-11-21T01:57:31.881Z,100.00
2018-11-21T02:00:00.164Z,100.00
2018-11-21T02:02:29.022Z,100.00
2018-11-21T02:04:57.359Z,100.00
2018-11-21T02:07:26.025Z,100.00
2018-11-21T02:09:54.378Z,100.00
2018-11-21T02:12:22.769Z,100.00
2018-11-21T02:14:51.018Z,100.00
2018-11-21T02:17:20.249Z,100.00
2018-11-21T02:19:48.574Z,100.00
2018-11-21T02:22:16.859Z,100.00
2018-11-21T02:24:45.172Z,100.00
2018-11-21T02:27:13.971Z,100.00
2018-11-21T02:29:42.289Z,100.00
2018-11-21T02:32:10.634Z,100.00
2018-11-21T02:34:38.858Z,100.00
2018-11-21T02:37:07.265Z,100.00
2018-11-21T02:39:36.041Z,100.00
2018-11-21T02:42:04.304Z,100.00
2018-11-21T02:44:32.618Z,100.00
2018-11-21T02:47:00.925Z,100.00
2018-11-21T02:49:29.288Z,100.00
2018-11-21T02:51:57.672Z,100.00
2018-11-21T02:54:25.922Z,100.00
2018-11-21T02:57:14.911Z,100.00
2018-11-21T02:59:43.277Z,100.00
2018-11-21T03:02:11.877Z,100.00
2018-11-21T03:04:40.134Z,100.00
2018-11-21T03:07:08.497Z,100.00
2018-11-21T03:09:36.867Z,100.00
2018-11-21T03:12:05.776Z,100.00
2018-11-21T03:14:34.207Z,100.00
2018-11-21T03:17:02.884Z,100.00
2018-11-21T03:19:31.260Z,100.00
2018-11-21T03:21:59.555Z,100.00
2018-11-21T03:24:27.863Z,100.00
2018-11-21T03:26:56.574Z,100.00
2018-11-21T03:29:24.809Z,100.00
2018-11-21T03:31:52.998Z,100.00
2018-11-21T03:34:21.315Z,100.00
2018-11-21T03:36:49.609Z,100.00
2018-11-21T03:39:17.845Z,100.00
2018-11-21T03:41:46.381Z,100.00
2018-11-21T03:44:14.661Z,100.00
2018-11-21T03:46:43.089Z,100.00
2018-11-21T03:49:11.916Z,100.00
2018-11-21T03:51:40.202Z,100.00
2018-11-21T03:54:08.445Z,100.00
2018-11-21T03:56:36.765Z,100.00
2018-11-21T03:59:05.015Z,100.00
2018-11-21T04:01:33.336Z,100.00
2018-11-21T04:04:01.610Z,100.00
2018-11-21T04:06:30.276Z,100.00
2018-11-21T04:08:58.512Z,100.00
2018-11-21T04:11:26.880Z,100.00
2018-11-21T04:13:55.183Z,100.00
2018-11-21T04:16:23.870Z,100.00
2018-11-21T04:18:52.309Z,100.00
2018-11-21T04:21:20.603Z,100.00
2018-11-21T04:23:49.297Z,100.00
2018-11-21T04:26:17.550Z,100.00
2018-11-21T04:28:46.014Z,100.00
2018-11-21T04:31:14.385Z,100.00
2018-11-21T04:33:42.667Z,100.00
2018-11-21T04:36:11.001Z,100.00
2018-11-21T04:38:39.385Z,100.00
2018-11-21T04:41:07.881Z,100.00
2018-11-21T04:43:36.188Z,100.00
2018-11-21T04:46:04.474Z,100.00
2018-11-21T04:48:32.743Z,100.00
2018-11-21T04:51:01.005Z,100.00
2018-11-21T04:53:29.325Z,100.00
2018-11-21T04:55:57.567Z,100.00
2018-11-21T04:58:25.850Z,100.00
2018-11-21T05:00:54.095Z,100.00
2018-11-21T05:03:22.880Z,100.00
2018-11-21T05:05:51.192Z,100.00
2018-11-21T05:08:19.510Z,100.00
2018-11-21T05:10:47.917Z,100.00
2018-11-21T05:13:16.180Z,100.00
2018-11-21T05:15:44.399Z,100.00
2018-11-21T05:18:12.703Z,100.00
2018-11-21T05:20:41.009Z,100.00
2018-11-21T05:23:09.665Z,100.00
2018-11-21T05:25:37.987Z,100.00
2018-11-21T05:28:06.467Z,100.00
2018-11-21T05:30:34.687Z,100.00
2018-11-21T05:33:02.966Z,100.00
2018-11-21T05:35:31.456Z,100.00
2018-11-21T05:37:59.737Z,100.00
2018-11-21T05:40:28.048Z,100.00
2018-11-21T05:42:56.770Z,100.00
2018-11-21T05:45:24.973Z,100.00
2018-11-21T05:47:53.174Z,100.00
2018-11-21T05:50:21.623Z,100.00
2018-11-21T05:52:49.856Z,100.00
2018-11-21T05:55:18.142Z,100.00
2018-11-21T05:57:46.402Z,100.00
2018-11-21T06:00:15.010Z,100.00
2018-11-21T06:02:44.328Z,100.00
2018-11-21T06:05:12.737Z,100.00
2018-11-21T06:07:40.977Z,100.00
2018-11-21T06:10:09.260Z,100.00
2018-11-21T06:12:37.508Z,100.00
2018-11-21T06:15:06.118Z,100.00
2018-11-21T06:17:34.469Z,100.00
2018-11-21T06:20:02.877Z,100.00
2018-11-21T06:22:31.519Z,100.00
2018-11-21T06:25:00.247Z,100.00
2018-11-21T06:27:28.964Z,100.00
2018-11-21T06:29:57.484Z,100.00
2018-11-21T06:32:26.235Z,100.00
2018-11-21T06:34:54.541Z,100.00
2018-11-21T06:37:22.977Z,100.00
2018-11-21T06:39:51.269Z,100.00
2018-11-21T06:42:19.532Z,100.00
2018-11-21T06:44:47.773Z,100.00
2018-11-21T06:47:16.060Z,100.00
2018-11-21T06:49:44.445Z,100.00
2018-11-21T06:52:13.074Z,100.00
2018-11-21T06:54:41.367Z,100.00
2018-11-21T06:57:10.063Z,100.00
2018-11-21T06:59:38.287Z,100.00
2018-11-21T07:02:06.542Z,100.00
2018-11-21T07:04:35.002Z,100.00
2018-11-21T07:07:03.222Z,100.00
2018-11-21T07:09:31.665Z,100.00
2018-11-21T07:11:59.953Z,100.00
2018-11-21T07:14:28.601Z,100.00
2018-11-21T07:16:56.883Z,100.00
2018-11-21T07:19:25.147Z,100.00
2018-11-21T07:21:53.397Z,100.00
2018-11-21T07:24:26.254Z,100.00
2018-11-21T07:26:50.135Z,100.00
2018-11-21T07:29:18.887Z,100.00
2018-11-21T07:31:47.394Z,100.00
2018-11-21T07:34:16.328Z,100.00
2018-11-21T07:36:44.752Z,100.00
2018-11-21T07:39:13.212Z,100.00
2018-11-21T07:41:41.538Z,100.00
2018-11-21T07:44:10.255Z,100.00
2018-11-21T07:46:39.067Z,100.00
2018-11-21T07:49:07.551Z,100.00
2018-11-21T07:51:35.768Z,100.00
2018-11-21T07:54:04.435Z,100.00
2018-11-21T07:56:33.225Z,100.00
2018-11-21T07:59:01.888Z,100.00
2018-11-21T08:01:30.592Z,100.00
2018-11-21T08:03:58.832Z,100.00
2018-11-21T08:06:27.118Z,100.00
2018-11-21T08:08:55.367Z,100.00
2018-11-21T08:11:23.786Z,100.00
2018-11-21T08:13:52.488Z,100.00
2018-11-21T08:16:20.962Z,100.00
2018-11-21T08:18:49.537Z,100.00
2018-11-21T08:21:17.830Z,100.00
2018-11-21T08:23:46.117Z,100.00
2018-11-21T08:26:14.528Z,100.00
2018-11-21T08:28:43.172Z,100.00
2018-11-21T08:31:11.585Z,100.00
2018-11-21T08:33:39.906Z,100.00
2018-11-21T08:36:08.125Z,100.00
2018-11-21T08:38:36.569Z,100.00
2018-11-21T08:41:04.853Z,100.00
2018-11-21T08:43:33.060Z,100.00
2018-11-21T08:46:01.317Z,100.00
2018-11-21T08:48:29.673Z,100.00
2018-11-21T08:50:58.948Z,100.00
2018-11-21T08:53:27.305Z,100.00
2018-11-21T08:55:55.737Z,100.00
2018-11-21T08:58:24.239Z,100.00
2018-11-21T09:00:52.983Z,100.00
2018-11-21T09:03:21.697Z,100.00
2018-11-21T09:05:50.240Z,100.00
2018-11-21T09:08:18.800Z,100.00
2018-11-21T09:10:47.170Z,100.00
2018-11-21T09:13:15.502Z,100.00
2018-11-21T09:15:43.856Z,100.00
2018-11-21T09:18:12.161Z,100.00
2018-11-21T09:20:40.392Z,100.00
2018-11-21T09:23:08.817Z,100.00
2018-11-21T09:25:37.293Z,100.00
2018-11-21T09:28:05.848Z,100.00
2018-11-21T09:30:34.430Z,100.00
2018-11-21T09:33:02.799Z,100.00
2018-11-21T09:35:31.526Z,100.00
2018-11-21T09:38:00.209Z,100.00
2018-11-21T09:40:28.452Z,100.00
2018-11-21T09:43:07.124Z,100.00
2018-11-21T09:45:35.500Z,100.00
2018-11-21T09:48:03.745Z,100.00
2018-11-21T09:50:31.993Z,100.00
2018-11-21T09:53:00.492Z,100.00
2018-11-21T09:55:28.715Z,100.00
2018-11-21T09:57:57.167Z,100.00
2018-11-21T10:00:59.323Z,100.00
2018-11-21T10:03:27.588Z,100.00
2018-11-21T10:05:56.067Z,100.00
2018-11-21T10:08:24.403Z,100.00
2018-11-21T10:10:52.817Z,100.00
2018-11-21T10:13:21.547Z,100.00
2018-11-21T10:15:52.222Z,100.00
2018-11-21T10:18:20.405Z,100.00
2018-11-21T10:20:48.843Z,100.00
2018-11-21T10:23:17.317Z,100.00
2018-11-21T10:25:45.617Z,100.00
2018-11-21T10:28:15.061Z,100.00
2018-11-21T10:30:43.859Z,100.00
2018-11-21T10:33:12.612Z,100.00
2018-11-21T10:35:41.223Z,100.00
2018-11-21T10:38:09.486Z,100.00
2018-11-21T10:40:37.723Z,100.00
2018-11-21T10:43:08.190Z,100.00
2018-11-21T10:45:36.915Z,100.00
2018-11-21T10:48:05.167Z,100.00
2018-11-21T10:50:33.357Z,100.00
2018-11-21T10:53:01.618Z,100.00
2018-11-21T10:55:30.200Z,100.00
2018-11-21T10:57:58.422Z,100.00
2018-11-21T11:00:27.177Z,100.00
2018-11-21T11:02:55.442Z,100.00
2018-11-21T11:05:23.713Z,100.00
2018-11-21T11:07:52.032Z,100.00
2018-11-21T11:10:20.282Z,100.00
2018-11-21T11:12:48.633Z,100.00
2018-11-21T11:15:17.457Z,100.00
2018-11-21T11:17:45.952Z,100.00
2018-11-21T11:20:14.244Z,100.00
2018-11-21T11:22:42.513Z,100.00
2018-11-21T11:25:11.171Z,100.00
2018-11-21T11:27:39.459Z,100.00
2018-11-21T11:30:09.244Z,100.00
2018-11-21T11:32:37.473Z,100.00
2018-11-21T11:35:06.217Z,100.00
2018-11-21T11:37:34.510Z,100.00
2018-11-21T11:40:03.215Z,100.00
2018-11-21T11:42:32.569Z,100.00
2018-11-21T11:45:02.073Z,100.00
2018-11-21T11:47:30.370Z,100.00
2018-11-21T11:49:59.062Z,100.00
2018-11-21T11:52:27.314Z,100.00
2018-11-21T11:54:55.575Z,100.00
2018-11-21T11:57:24.187Z,100.00
2018-11-21T11:59:52.897Z,100.00
2018-11-21T12:02:21.527Z,100.00
2018-11-21T12:04:50.290Z,100.00
2018-11-21T12:07:19.097Z,95.84
2018-11-21T12:09:47.516Z,90.86
2018-11-21T12:12:15.827Z,93.30
2018-11-21T12:14:44.570Z,95.20
2018-11-21T12:17:12.757Z,94.60
2018-11-21T12:19:41.215Z,95.62
2018-11-21T12:22:09.667Z,94.57
2018-11-21T12:24:37.876Z,91.92
2018-11-21T12:27:06.111Z,94.04
2018-11-21T12:29:34.417Z,96.79
2018-11-21T12:32:02.657Z,97.19
2018-11-21T12:34:30.962Z,97.73
2018-11-21T12:36:59.754Z,98.34
2018-11-21T12:39:28.867Z,98.72
2018-11-21T12:41:57.527Z,97.11
2018-11-21T12:44:25.970Z,96.84
2018-11-21T12:46:54.254Z,97.22
2018-11-21T12:49:22.992Z,96.31
2018-11-21T12:51:51.254Z,98.80
2018-11-21T12:54:19.515Z,97.46
2018-11-21T12:56:47.802Z,94.71
2018-11-21T12:59:16.037Z,94.76
2018-11-21T13:01:44.788Z,96.07
2018-11-21T13:04:13.624Z,98.16
2018-11-21T13:06:41.969Z,97.62
2018-11-21T13:09:10.214Z,94.56
2018-11-21T13:11:38.913Z,94.39
2018-11-21T13:14:07.285Z,95.70
2018-11-21T13:16:35.502Z,95.21
2018-11-21T13:19:04.162Z,94.98
2018-11-21T13:21:32.451Z,95.15
2018-11-21T13:24:01.181Z,96.16
2018-11-21T13:26:29.961Z,96.62
2018-11-21T13:28:58.480Z,96.78
2018-11-21T13:31:26.746Z,95.34
2018-11-21T13:33:55.512Z,94.88
2018-11-21T13:36:24.094Z,92.54
2018-11-21T13:38:52.327Z,94.21
2018-11-21T13:41:20.728Z,94.89
2018-11-21T13:43:49.164Z,96.13
2018-11-21T13:46:17.394Z,95.16
2018-11-21T13:48:45.648Z,95.78
2018-11-21T13:51:14.146Z,95.72
2018-11-21T13:53:42.356Z,96.69
2018-11-21T13:56:10.892Z,97.50
2018-11-21T13:58:39.597Z,98.21
2018-11-21T14:01:07.877Z,96.75
2018-11-21T14:03:36.690Z,98.45
2018-11-21T14:06:05.314Z,99.23
2018-11-21T14:08:33.987Z,99.54
2018-11-21T14:11:02.764Z,96.90
2018-11-21T14:13:31.430Z,98.36
2018-11-21T14:15:59.771Z,98.89
2018-11-21T14:18:28.499Z,99.18
2018-11-21T14:20:57.188Z,100.00
2018-11-21T14:23:25.410Z,100.00
2018-11-21T14:25:53.859Z,100.00
2018-11-21T14:28:22.130Z,100.00
2018-11-21T14:30:50.436Z,100.00
2018-11-21T14:33:19.328Z,100.00
2018-11-21T14:35:48.553Z,100.00
2018-11-21T14:38:16.797Z,100.00
2018-11-21T14:40:45.163Z,100.00
2018-11-21T14:43:13.739Z,100.00
2018-11-21T14:45:42.551Z,100.00
2018-11-21T14:48:10.703Z,100.00
2018-11-21T14:50:39.417Z,100.00
2018-11-21T14:53:07.446Z,100.00
2018-11-21T14:55:35.866Z,100.00
2018-11-21T14:58:04.091Z,100.00
2018-11-21T15:00:32.368Z,100.00
2018-11-21T15:03:00.668Z,100.00
2018-11-21T15:05:28.958Z,100.00
2018-11-21T15:07:57.591Z,100.00
2018-11-21T15:10:25.853Z,100.00
2018-11-21T15:12:54.554Z,100.00
2018-11-21T15:15:22.790Z,100.00
2018-11-21T15:17:51.058Z,100.00
2018-11-21T15:20:19.516Z,100.00
2018-11-21T15:22:48.043Z,100.00
2018-11-21T15:25:16.789Z,100.00
2018-11-21T15:27:45.235Z,100.00
2018-11-21T15:30:13.543Z,100.00
2018-11-21T15:32:42.306Z,100.00
2018-11-21T15:35:10.701Z,100.00
2018-11-21T15:37:39.031Z,100.00
2018-11-21T15:40:07.346Z,100.00
2018-11-21T15:42:35.766Z,100.00
2018-11-21T15:45:04.056Z,100.00
2018-11-21T15:47:32.869Z,100.00
2018-11-21T15:50:01.147Z,100.00
2018-11-21T15:52:29.549Z,100.00
2018-11-21T15:54:58.228Z,100.00
2018-11-21T15:57:26.898Z,100.00
2018-11-21T15:59:55.349Z,100.00
2018-11-21T16:02:24.071Z,100.00
2018-11-21T16:04:52.562Z,100.00
2018-11-21T16:07:20.960Z,100.00
2018-11-21T16:09:49.453Z,100.00
2018-11-21T16:12:17.955Z,100.00
2018-11-21T16:14:46.709Z,100.00
2018-11-21T16:17:15.072Z,100.00
2018-11-21T16:19:43.844Z,100.00
2018-11-21T16:22:12.555Z,100.00
2018-11-21T16:24:41.021Z,100.00
2018-11-21T16:27:09.713Z,100.00
2018-11-21T16:29:38.137Z,100.00
2018-11-21T16:32:06.793Z,100.00
2018-11-21T16:34:35.568Z,100.00
2018-11-21T16:37:04.146Z,100.00
2018-11-21T16:39:32.936Z,100.00
2018-11-21T16:42:01.456Z,100.00
2018-11-21T16:44:31.434Z,100.00
2018-11-21T16:46:59.748Z,100.00
2018-11-21T16:49:28.173Z,100.00
2018-11-21T16:51:56.966Z,100.00
2018-11-21T16:54:25.569Z,100.00
2018-11-21T16:56:53.868Z,100.00
2018-11-21T16:59:22.253Z,100.00
2018-11-21T17:01:51.029Z,100.00
2018-11-21T17:04:19.309Z,100.00
2018-11-21T17:06:47.598Z,100.00
2018-11-21T17:09:16.014Z,100.00
2018-11-21T17:11:44.263Z,100.00
2018-11-21T17:14:12.983Z,100.00
2018-11-21T17:16:41.655Z,100.00
2018-11-21T17:19:10.156Z,100.00
2018-11-21T17:21:39.497Z,100.00
2018-11-21T17:27:30.594Z,100.00
2018-11-21T17:30:00.956Z,100.00
2018-11-21T17:32:29.722Z,100.00
2018-11-21T17:34:58.515Z,100.00
2018-11-21T17:37:27.012Z,100.00
2018-11-21T17:39:55.757Z,100.00
2018-11-21T17:42:24.063Z,100.00
2018-11-21T17:44:52.364Z,100.00
2018-11-21T17:47:20.789Z,100.00
2018-11-21T17:49:49.072Z,100.00
2018-11-21T17:52:17.677Z,100.00
2018-11-21T17:54:46.320Z,100.00
2018-11-21T17:57:15.071Z,100.00
2018-11-21T17:59:43.443Z,100.00
2018-11-21T18:02:11.893Z,100.00
2018-11-21T18:04:40.891Z,100.00
2018-11-21T18:07:09.676Z,100.00
2018-11-21T18:09:38.394Z,100.00
2018-11-21T18:12:07.164Z,100.00
2018-11-21T18:14:35.902Z,100.00
2018-11-21T18:17:04.652Z,100.00
2018-11-21T18:19:33.364Z,100.00
2018-11-21T18:22:02.166Z,100.00
2018-11-21T18:24:30.721Z,100.00
2018-11-21T18:26:58.989Z,100.00
2018-11-21T18:29:27.830Z,100.00
2018-11-21T18:31:56.574Z,100.00
2018-11-21T18:34:24.904Z,100.00
2018-11-21T18:36:54.449Z,100.00
2018-11-21T18:39:22.890Z,100.00
2018-11-21T18:41:52.716Z,100.00
2018-11-21T18:44:20.436Z,100.00
2018-11-21T18:46:48.878Z,100.00
2018-11-21T18:49:17.368Z,100.00
2018-11-21T18:51:46.356Z,100.00
2018-11-21T18:54:14.784Z,100.00
2018-11-21T18:56:45.502Z,100.00
2018-11-21T18:59:13.214Z,100.00
2018-11-21T19:01:46.616Z,100.00
2018-11-21T19:04:10.336Z,100.00
2018-11-21T19:06:39.348Z,100.00
2018-11-21T19:09:08.156Z,100.00
2018-11-21T19:11:36.938Z,100.00
2018-11-21T19:14:05.356Z,100.00
2018-11-21T19:16:34.064Z,100.00
2018-11-21T19:19:02.802Z,100.00
2018-11-21T19:21:31.551Z,100.00
2018-11-21T19:23:59.898Z,100.00
2018-11-21T19:26:28.410Z,100.00
2018-11-21T19:28:57.318Z,100.00
2018-11-21T19:31:29.577Z,100.00
2018-11-21T19:33:54.396Z,100.00
2018-11-21T19:36:23.272Z,100.00
2018-11-21T19:38:51.581Z,100.00
2018-11-21T19:41:20.263Z,100.00
2018-11-21T19:43:48.558Z,100.00
2018-11-21T19:46:21.298Z,100.00
